»·PEaware :: N53587 KSNA-KBUR

N53587 :: KSNA-KBUR

FLIGHT INFORMATION

Flight Status: Arrived
Operator: Privately registered:
United States
More flights under this callsign
Pilot: Heinz M. (6680)
Aircraft: CESSNA 172 SKYHAWK
(C172)
More flights by this aircraft type
Origin: KSNA John Wayne-Orange Co
United States
Destination: KBUR Bob Hope-Burbank
United States
More flights between these airports :: More routes between these airports
Route: SLI V23 POPPR SMO125 SMO SMO311 SILEX
File this flight plan on PilotEdge
Remarks:
Altitude:
(Current/Filed)
4,000ft
Speed:
(Current/Filed)
110kts
Departed: 16-May-18 02:54 PM
Arrived: 16-May-18 03:37 PM
Distance/Time
Traveled:
40nm/0:43
Distance/Time
To Go:
Arrived

Flight Plot

Page will automatically refresh every two minutes.


Map Options




Map Legend


Flown Route
Filed Route
Departure Airport
Arrival Airport
Navaid (VOR, NDB)
Fix

Horizontal Profiles

Position Reports

Time Latitude Longitude Heading Altitude Ground
Speed
16-May-18 14:37 33.668124 -117.871032 224 60ft 0kts
16-May-18 14:38 33.668124 -117.871032 224 60ft 0kts
16-May-18 14:39 33.668124 -117.871032 224 60ft 0kts
16-May-18 14:40 33.668124 -117.871032 224 60ft 0kts
16-May-18 14:41 33.668124 -117.871032 224 60ft 0kts
16-May-18 14:42 33.668124 -117.871032 224 60ft 0kts
16-May-18 14:43 33.668124 -117.871032 224 60ft 0kts
16-May-18 14:44 33.668124 -117.871032 224 60ft 0kts
16-May-18 14:45 33.668123 -117.871033 224 60ft 0kts
16-May-18 14:46 33.669361 -117.870673 39 60ft 9kts
16-May-18 14:47 33.671715 -117.868378 30 60ft 11kts
16-May-18 14:48 33.673907 -117.867195 20 60ft 4kts
16-May-18 14:49 33.675097 -117.866454 28 60ft 9kts
16-May-18 14:50 33.677654 -117.864844 27 60ft 12kts
16-May-18 14:51 33.679570 -117.863612 26 60ft 4kts
16-May-18 14:52 33.679969 -117.863635 305 60ft 0kts
16-May-18 14:53 33.679969 -117.863635 305 60ft 0kts
16-May-18 14:54 33.671959 -117.869804 217 232ft 93kts
16-May-18 14:55 33.653358 -117.889699 219 1355ft 93kts
16-May-18 14:56 33.633329 -117.910255 220 1974ft 118kts
16-May-18 14:57 33.607936 -117.936855 221 1972ft 122kts
16-May-18 14:58 33.583889 -117.965209 236 2151ft 114kts
16-May-18 14:59 33.583362 -117.998496 297 3127ft 98kts
16-May-18 15:00 33.592897 -118.022392 299 3951ft 93kts
16-May-18 15:01 33.609906 -118.063650 299 4015ft 133kts
16-May-18 15:02 33.625510 -118.100420 300 4015ft 109kts
16-May-18 15:03 33.647862 -118.118901 346 4015ft 97kts
16-May-18 15:04 33.673891 -118.127513 347 4016ft 96kts
16-May-18 15:05 33.696003 -118.145331 319 4015ft 99kts
16-May-18 15:06 33.715741 -118.168530 320 4015ft 99kts
16-May-18 15:07 33.732191 -118.187972 320 4015ft 99kts
16-May-18 15:08 33.752662 -118.211708 320 3932ft 102kts
16-May-18 15:09 33.770853 -118.237157 311 3933ft 101kts
16-May-18 15:10 33.788202 -118.263647 309 3933ft 101kts
16-May-18 15:11 33.804909 -118.290844 311 3933ft 101kts
16-May-18 15:12 33.823474 -118.315021 334 3933ft 98kts
16-May-18 15:13 33.849142 -118.333495 332 3933ft 115kts
16-May-18 15:14 33.876407 -118.354185 330 3933ft 116kts
16-May-18 15:15 33.903557 -118.374890 331 3933ft 116kts
16-May-18 15:16 33.930860 -118.395720 330 3933ft 116kts
16-May-18 15:17 33.958271 -118.416665 329 3933ft 116kts
16-May-18 15:18 33.985518 -118.437498 330 3933ft 116kts
16-May-18 15:19 34.011963 -118.460074 316 3933ft 118kts
16-May-18 15:20 34.034000 -118.489432 315 3933ft 118kts
16-May-18 15:21 34.056287 -118.518782 314 3933ft 118kts
16-May-18 15:22 34.078282 -118.548409 315 3933ft 118kts
16-May-18 15:23 34.099881 -118.578432 314 3933ft 118kts
16-May-18 15:24 34.121129 -118.607935 314 3934ft 119kts
16-May-18 15:25 34.142989 -118.637904 314 3935ft 119kts
16-May-18 15:26 34.166410 -118.644738 55 3929ft 111kts
16-May-18 15:27 34.179305 -118.611376 63 3538ft 105kts
16-May-18 15:28 34.190930 -118.579870 64 3043ft 104kts
16-May-18 15:29 34.196981 -118.550584 84 2973ft 83kts
16-May-18 15:30 34.200063 -118.525093 75 2973ft 78kts
16-May-18 15:31 34.201734 -118.501689 99 3036ft 69kts
16-May-18 15:32 34.197515 -118.470558 92 2480ft 105kts
16-May-18 15:33 34.197589 -118.439085 92 1944ft 88kts
16-May-18 15:34 34.197872 -118.410178 92 1487ft 86kts
16-May-18 15:35 34.201608 -118.384418 48 1297ft 65kts
16-May-18 15:36 34.216745 -118.369899 57 1327ft 70kts
16-May-18 15:37 34.209356 -118.359664 168 783ft 37kts
16-May-18 15:38 34.206167 -118.359522 257 781ft 5kts
16-May-18 15:39 34.206110 -118.359788 247 781ft 0kts
16-May-18 15:40 34.205437 -118.360197 168 781ft 0kts

Navigation Log

Ident Type
1. KSNA Airport
2. SLI Navaid
3. POPPR Fix
4. SMO Navaid
5. SILEX Fix
6. KBUR Airport